sensor_id;sensor_type;location;lat;lon;timestamp;pressure;altitude;pressure_sealevel;temperature;humidity
56518;BME280;42419;48.760;2.322;2022-09-09T00:01:52;100303.81;;;23.76;43.76
56518;BME280;42419;48.760;2.322;2022-09-09T00:04:34;100293.94;;;23.77;43.48
56518;BME280;42419;48.760;2.322;2022-09-09T00:07:13;100300.25;;;23.76;43.54
56518;BME280;42419;48.760;2.322;2022-09-09T00:09:48;100294.88;;;23.76;43.64
56518;BME280;42419;48.760;2.322;2022-09-09T00:14:54;100253.78;;;23.45;43.20
56518;BME280;42419;48.760;2.322;2022-09-09T00:17:48;100290.66;;;23.71;42.90
56518;BME280;42419;48.760;2.322;2022-09-09T00:20:21;100296.72;;;23.75;43.39
56518;BME280;42419;48.760;2.322;2022-09-09T00:23:00;100299.50;;;23.73;43.13
56518;BME280;42419;48.760;2.322;2022-09-09T00:25:39;100291.63;;;23.70;42.78
56518;BME280;42419;48.760;2.322;2022-09-09T00:28:18;100292.56;;;23.69;42.87
56518;BME280;42419;48.760;2.322;2022-09-09T00:30:44;100298.06;;;23.68;43.66
56518;BME280;42419;48.760;2.322;2022-09-09T00:33:13;100292.75;;;23.66;43.32
56518;BME280;42419;48.760;2.322;2022-09-09T00:35:52;100286.53;;;23.66;43.15
56518;BME280;42419;48.760;2.322;2022-09-09T00:38:24;100291.03;;;23.65;43.36
56518;BME280;42419;48.760;2.322;2022-09-09T00:40:53;100291.03;;;23.65;43.11
56518;BME280;42419;48.760;2.322;2022-09-09T00:51:15;100290.28;;;23.63;43.31
56518;BME280;42419;48.760;2.322;2022-09-09T00:59:44;100266.47;;;23.57;43.14
56518;BME280;42419;48.760;2.322;2022-09-09T01:02:39;100274.22;;;23.62;43.13
56518;BME280;42419;48.760;2.322;2022-09-09T01:05:13;100273.38;;;23.61;42.73
56518;BME280;42419;48.760;2.322;2022-09-09T01:07:44;100271.53;;;23.62;42.64
56518;BME280;42419;48.760;2.322;2022-09-09T01:10:24;100260.03;;;23.60;42.49
56518;BME280;42419;48.760;2.322;2022-09-09T01:12:55;100260.03;;;23.60;43.17
56518;BME280;42419;48.760;2.322;2022-09-09T01:15:26;100257.63;;;23.55;42.99
56518;BME280;42419;48.760;2.322;2022-09-09T01:18:01;100257.34;;;23.60;42.63
56518;BME280;42419;48.760;2.322;2022-09-09T01:20:42;100254.66;;;23.60;42.64
56518;BME280;42419;48.760;2.322;2022-09-09T01:23:27;100256.50;;;23.59;42.96
56518;BME280;42419;48.760;2.322;2022-09-09T01:28:34;100262.91;;;23.57;43.24
56518;BME280;42419;48.760;2.322;2022-09-09T01:31:03;100257.63;;;23.55;42.91
56518;BME280;42419;48.760;2.322;2022-09-09T01:33:29;100255.91;;;23.54;42.74
56518;BME280;42419;48.760;2.322;2022-09-09T01:35:55;100250.53;;;23.54;42.92
56518;BME280;42419;48.760;2.322;2022-09-09T01:38:23;100264.91;;;23.53;42.83
56518;BME280;42419;48.760;2.322;2022-09-09T01:40:50;100258.69;;;23.53;42.82
56518;BME280;42419;48.760;2.322;2022-09-09T01:43:18;100247.25;;;23.49;42.72
56518;BME280;42419;48.760;2.322;2022-09-09T01:45:46;100261.38;;;23.53;42.97
56518;BME280;42419;48.760;2.322;2022-09-09T01:48:14;100272.97;;;23.53;42.76
56518;BME280;42419;48.760;2.322;2022-09-09T01:50:39;100253.97;;;23.42;43.07
56518;BME280;42419;48.760;2.322;2022-09-09T01:53:04;100264.06;;;23.53;42.88
56518;BME280;42419;48.760;2.322;2022-09-09T01:55:33;100273.06;;;23.52;42.99
56518;BME280;42419;48.760;2.322;2022-09-09T02:01:24;100267.81;;;23.50;42.80
56518;BME280;42419;48.760;2.322;2022-09-09T02:03:56;100261.66;;;23.48;42.75
56518;BME280;42419;48.760;2.322;2022-09-09T02:06:27;100261.66;;;23.48;43.26
56518;BME280;42419;48.760;2.322;2022-09-09T02:08:56;100225.75;;;23.35;42.89
56518;BME280;42419;48.760;2.322;2022-09-09T02:11:24;100242.09;;;23.46;43.04
56518;BME280;42419;48.760;2.322;2022-09-09T02:16:57;100245.72;;;23.45;42.73
56518;BME280;42419;48.760;2.322;2022-09-09T02:19:32;100244.06;;;23.43;42.86
56518;BME280;42419;48.760;2.322;2022-09-09T02:21:59;100223.25;;;23.32;42.97
56518;BME280;42419;48.760;2.322;2022-09-09T02:24:27;100248.59;;;23.42;42.98
56518;BME280;42419;48.760;2.322;2022-09-09T02:26:56;100246.75;;;23.43;42.64
56518;BME280;42419;48.760;2.322;2022-09-09T02:29:31;100221.72;;;23.28;42.78
56518;BME280;42419;48.760;2.322;2022-09-09T02:32:00;100256.66;;;23.42;42.82
56518;BME280;42419;48.760;2.322;2022-09-09T02:34:30;100261.06;;;23.43;43.11
56518;BME280;42419;48.760;2.322;2022-09-09T02:36:57;100245.81;;;23.44;43.17
56518;BME280;42419;48.760;2.322;2022-09-09T02:39:25;100248.50;;;23.44;42.80
56518;BME280;42419;48.760;2.322;2022-09-09T02:41:50;100248.59;;;23.42;43.15
56518;BME280;42419;48.760;2.322;2022-09-09T02:44:18;100244.94;;;23.43;43.11
56518;BME280;42419;48.760;2.322;2022-09-09T02:52:08;100242.94;;;23.47;42.70
56518;BME280;42419;48.760;2.322;2022-09-09T02:54:40;100252.72;;;23.48;43.03
56518;BME280;42419;48.760;2.322;2022-09-09T02:57:26;100224.13;;;23.33;42.55
56518;BME280;42419;48.760;2.322;2022-09-09T02:59:53;100222.19;;;23.35;42.81
56518;BME280;42419;48.760;2.322;2022-09-09T03:02:20;100248.31;;;23.47;43.00
56518;BME280;42419;48.760;2.322;2022-09-09T03:04:45;100244.78;;;23.46;42.88
56518;BME280;42419;48.760;2.322;2022-09-09T03:07:15;100246.59;;;23.46;42.92
56518;BME280;42419;48.760;2.322;2022-09-09T03:09:42;100258.28;;;23.45;42.70
56518;BME280;42419;48.760;2.322;2022-09-09T03:12:07;100235.53;;;23.36;42.78
56518;BME280;42419;48.760;2.322;2022-09-09T03:14:33;100243.97;;;23.44;43.00
56518;BME280;42419;48.760;2.322;2022-09-09T03:16:58;100243.03;;;23.45;43.27
56518;BME280;42419;48.760;2.322;2022-09-09T03:19:26;100238.81;;;23.41;42.94
56518;BME280;42419;48.760;2.322;2022-09-09T03:21:52;100251.00;;;23.47;42.78
56518;BME280;42419;48.760;2.322;2022-09-09T03:24:18;100254.53;;;23.47;42.82
56518;BME280;42419;48.760;2.322;2022-09-09T03:26:43;100245.63;;;23.47;43.03
56518;BME280;42419;48.760;2.322;2022-09-09T03:29:10;100219.69;;;23.32;42.90
56518;BME280;42419;48.760;2.322;2022-09-09T03:31:37;100259.91;;;23.47;42.87
56518;BME280;42419;48.760;2.322;2022-09-09T03:34:03;100254.53;;;23.47;43.07
56518;BME280;42419;48.760;2.322;2022-09-09T03:36:28;100224.78;;;23.36;42.71
56518;BME280;42419;48.760;2.322;2022-09-09T03:38:54;100237.75;;;23.44;43.14
56518;BME280;42419;48.760;2.322;2022-09-09T03:41:21;100247.53;;;23.45;43.05
56518;BME280;42419;48.760;2.322;2022-09-09T03:43:49;100253.59;;;23.48;43.04
56518;BME280;42419;48.760;2.322;2022-09-09T03:46:15;100245.63;;;23.47;42.75
56518;BME280;42419;48.760;2.322;2022-09-09T03:48:40;100249.16;;;23.47;42.65
56518;BME280;42419;48.760;2.322;2022-09-09T03:51:05;100251.84;;;23.47;42.77
56518;BME280;42419;48.760;2.322;2022-09-09T03:53:31;100242.09;;;23.46;42.84
56518;BME280;42419;48.760;2.322;2022-09-09T03:55:57;100254.53;;;23.47;42.69
56518;BME280;42419;48.760;2.322;2022-09-09T03:58:25;100252.84;;;23.46;42.90
56518;BME280;42419;48.760;2.322;2022-09-09T04:00:59;100256.47;;;23.45;43.08
56518;BME280;42419;48.760;2.322;2022-09-09T04:03:26;100257.41;;;23.44;43.10
56518;BME280;42419;48.760;2.322;2022-09-09T04:05:52;100232.47;;;23.28;42.68
56518;BME280;42419;48.760;2.322;2022-09-09T04:08:19;100271.81;;;23.43;42.63
56518;BME280;42419;48.760;2.322;2022-09-09T04:10:49;100254.16;;;23.39;42.62
56518;BME280;42419;48.760;2.322;2022-09-09T04:13:16;100255.13;;;23.38;43.10
56518;BME280;42419;48.760;2.322;2022-09-09T04:15:43;100235.16;;;23.28;43.17
56518;BME280;42419;48.760;2.322;2022-09-09T04:18:11;100256.16;;;23.36;42.96
56518;BME280;42419;48.760;2.322;2022-09-09T04:20:37;100244.56;;;23.35;43.27
56518;BME280;42419;48.760;2.322;2022-09-09T04:23:03;100242.81;;;23.34;43.21
56518;BME280;42419;48.760;2.322;2022-09-09T04:25:29;100229.50;;;23.33;42.97
56518;BME280;42419;48.760;2.322;2022-09-09T04:27:55;100229.56;;;23.31;43.36
56518;BME280;42419;48.760;2.322;2022-09-09T04:30:21;100230.66;;;23.28;43.02
56518;BME280;42419;48.760;2.322;2022-09-09T04:32:46;100228.03;;;23.27;43.17
56518;BME280;42419;48.760;2.322;2022-09-09T04:35:12;100235.31;;;23.25;43.05
56518;BME280;42419;48.760;2.322;2022-09-09T04:37:37;100240.69;;;23.25;43.07
56518;BME280;42419;48.760;2.322;2022-09-09T04:40:03;100238.97;;;23.24;43.26
56518;BME280;42419;48.760;2.322;2022-09-09T04:42:28;100234.47;;;23.24;43.00
56518;BME280;42419;48.760;2.322;2022-09-09T04:44:53;100236.28;;;23.24;43.41
56518;BME280;42419;48.760;2.322;2022-09-09T04:47:19;100238.97;;;23.24;43.42
56518;BME280;42419;48.760;2.322;2022-09-09T04:49:45;100242.53;;;23.24;43.49
56518;BME280;42419;48.760;2.322;2022-09-09T04:52:10;100250.59;;;23.24;43.33
56518;BME280;42419;48.760;2.322;2022-09-09T04:54:36;100231.78;;;23.24;43.57
56518;BME280;42419;48.760;2.322;2022-09-09T04:57:01;100231.88;;;23.23;43.29
56518;BME280;42419;48.760;2.322;2022-09-09T04:59:27;100240.00;;;23.21;43.02
56518;BME280;42419;48.760;2.322;2022-09-09T05:01:52;100243.72;;;23.19;43.54
56518;BME280;42419;48.760;2.322;2022-09-09T05:04:20;100237.56;;;23.17;43.62
56518;BME280;42419;48.760;2.322;2022-09-09T05:06:45;100229.91;;;23.11;43.46
56518;BME280;42419;48.760;2.322;2022-09-09T05:09:11;100230.78;;;23.11;43.35
56518;BME280;42419;48.760;2.322;2022-09-09T05:11:36;100246.69;;;23.14;43.48
56518;BME280;42419;48.760;2.322;2022-09-09T05:14:02;100232.66;;;23.09;43.70
56518;BME280;42419;48.760;2.322;2022-09-09T05:16:28;100257.25;;;23.17;43.50
56518;BME280;42419;48.760;2.322;2022-09-09T05:18:53;100238.53;;;23.16;43.11
56518;BME280;42419;48.760;2.322;2022-09-09T05:21:20;100244.69;;;23.18;43.26
56518;BME280;42419;48.760;2.322;2022-09-09T05:23:46;100252.75;;;23.18;43.53
56518;BME280;42419;48.760;2.322;2022-09-09T05:26:14;100248.31;;;23.17;43.78
56518;BME280;42419;48.760;2.322;2022-09-09T05:28:40;100251.38;;;23.11;43.58
56518;BME280;42419;48.760;2.322;2022-09-09T05:31:07;100262.59;;;23.17;43.71
56518;BME280;42419;48.760;2.322;2022-09-09T05:33:34;100251.94;;;23.16;43.66
56518;BME280;42419;48.760;2.322;2022-09-09T05:36:04;100261.84;;;23.15;43.59
56518;BME280;42419;48.760;2.322;2022-09-09T05:38:31;100239.25;;;23.04;43.72
56518;BME280;42419;48.760;2.322;2022-09-09T05:40:58;100258.31;;;23.15;44.02
56518;BME280;42419;48.760;2.322;2022-09-09T05:43:24;100247.16;;;23.07;43.47
56518;BME280;42419;48.760;2.322;2022-09-09T05:46:00;100262.81;;;23.14;43.49
56518;BME280;42419;48.760;2.322;2022-09-09T05:48:34;100255.88;;;23.10;43.66
56518;BME280;42419;48.760;2.322;2022-09-09T05:51:01;100261.16;;;23.12;43.95
56518;BME280;42419;48.760;2.322;2022-09-09T05:53:28;100268.66;;;23.07;44.14
56518;BME280;42419;48.760;2.322;2022-09-09T05:56:04;100270.63;;;23.03;44.17
56518;BME280;42419;48.760;2.322;2022-09-09T05:58:33;100254.91;;;22.97;43.87
56518;BME280;42419;48.760;2.322;2022-09-09T06:01:11;100261.47;;;22.92;43.68
56518;BME280;42419;48.760;2.322;2022-09-09T06:03:39;100259.06;;;22.87;44.32
56518;BME280;42419;48.760;2.322;2022-09-09T06:06:07;100273.91;;;22.78;44.20
56518;BME280;42419;48.760;2.322;2022-09-09T06:08:34;100282.97;;;22.76;44.23
56518;BME280;42419;48.760;2.322;2022-09-09T06:11:12;100263.78;;;22.68;44.33
56518;BME280;42419;48.760;2.322;2022-09-09T06:13:38;100239.03;;;22.47;44.44
56518;BME280;42419;48.760;2.322;2022-09-09T06:16:09;100272.53;;;22.56;44.47
56518;BME280;42419;48.760;2.322;2022-09-09T06:18:36;100262.81;;;22.53;44.86
56518;BME280;42419;48.760;2.322;2022-09-09T06:21:05;100278.31;;;22.48;44.69
56518;BME280;42419;48.760;2.322;2022-09-09T06:23:32;100269.56;;;22.45;44.72
56518;BME280;42419;48.760;2.322;2022-09-09T06:26:11;100266.19;;;22.41;44.99
56518;BME280;42419;48.760;2.322;2022-09-09T06:28:37;100265.56;;;22.36;44.78
56518;BME280;42419;48.760;2.322;2022-09-09T06:31:10;100277.34;;;22.33;45.02
56518;BME280;42419;48.760;2.322;2022-09-09T06:33:40;100263.25;;;22.30;44.99
56518;BME280;42419;48.760;2.322;2022-09-09T06:36:11;100262.47;;;22.28;45.00
56518;BME280;42419;48.760;2.322;2022-09-09T06:38:37;100245.94;;;22.20;45.14
56518;BME280;42419;48.760;2.322;2022-09-09T06:41:03;100261.59;;;22.27;45.23
56518;BME280;42419;48.760;2.322;2022-09-09T06:43:29;100247.84;;;22.18;45.27
56518;BME280;42419;48.760;2.322;2022-09-09T06:46:04;100249.16;;;22.26;45.43
56518;BME280;42419;48.760;2.322;2022-09-09T06:48:29;100256.34;;;22.26;45.46
56518;BME280;42419;48.760;2.322;2022-09-09T06:51:15;100253.03;;;22.21;45.40
56518;BME280;42419;48.760;2.322;2022-09-09T06:53:42;100264.47;;;22.24;45.37
56518;BME280;42419;48.760;2.322;2022-09-09T06:58:34;100269.53;;;22.13;45.39
56518;BME280;42419;48.760;2.322;2022-09-09T07:01:06;100271.66;;;21.91;46.02
56518;BME280;42419;48.760;2.322;2022-09-09T07:03:32;100267.81;;;21.79;45.77
56518;BME280;42419;48.760;2.322;2022-09-09T07:05:58;100263.84;;;21.71;46.00
56518;BME280;42419;48.760;2.322;2022-09-09T07:08:24;100268.75;;;21.63;46.41
56518;BME280;42419;48.760;2.322;2022-09-09T07:10:51;100268.19;;;21.56;46.49
56518;BME280;42419;48.760;2.322;2022-09-09T07:13:25;100268.34;;;21.53;46.75
56518;BME280;42419;48.760;2.322;2022-09-09T07:15:51;100242.84;;;21.29;46.94
56518;BME280;42419;48.760;2.322;2022-09-09T07:18:17;100255.66;;;21.24;46.80
56518;BME280;42419;48.760;2.322;2022-09-09T07:20:42;100281.22;;;21.29;47.02
56518;BME280;42419;48.760;2.322;2022-09-09T07:23:08;100265.47;;;21.06;47.18
56518;BME280;42419;48.760;2.322;2022-09-09T07:25:33;100279.22;;;20.98;47.74
56518;BME280;42419;48.760;2.322;2022-09-09T07:27:59;100265.44;;;20.89;47.91
56518;BME280;42419;48.760;2.322;2022-09-09T07:30:24;100276.63;;;20.97;47.93
56518;BME280;42419;48.760;2.322;2022-09-09T07:32:51;100285.91;;;21.07;47.97
56518;BME280;42419;48.760;2.322;2022-09-09T07:35:17;100291.38;;;21.23;47.91
56518;BME280;42419;48.760;2.322;2022-09-09T07:37:42;100293.25;;;21.38;47.74
56518;BME280;42419;48.760;2.322;2022-09-09T07:40:08;100306.03;;;21.50;47.43
56518;BME280;42419;48.760;2.322;2022-09-09T07:42:33;100299.16;;;21.62;47.31
56518;BME280;42419;48.760;2.322;2022-09-09T07:44:59;100297.72;;;21.72;46.91
56518;BME280;42419;48.760;2.322;2022-09-09T07:47:24;100295.56;;;21.78;46.88
56518;BME280;42419;48.760;2.322;2022-09-09T07:49:50;100248.19;;;21.63;46.77
56518;BME280;42419;48.760;2.322;2022-09-09T07:52:15;100290.63;;;21.88;46.61
56518;BME280;42419;48.760;2.322;2022-09-09T07:54:41;100305.06;;;22.01;46.52
56518;BME280;42419;48.760;2.322;2022-09-09T07:57:07;100311.00;;;22.08;46.17
56518;BME280;42419;48.760;2.322;2022-09-09T07:59:32;100307.19;;;22.12;46.35
56518;BME280;42419;48.760;2.322;2022-09-09T08:01:58;100308.56;;;22.19;45.83
56518;BME280;42419;48.760;2.322;2022-09-09T08:04:25;100336.94;;;22.23;45.71
56518;BME280;42419;48.760;2.322;2022-09-09T08:06:53;100308.84;;;22.30;45.54
56518;BME280;42419;48.760;2.322;2022-09-09T08:09:19;100328.31;;;22.33;45.47
56518;BME280;42419;48.760;2.322;2022-09-09T08:11:45;100321.81;;;22.37;44.96
56518;BME280;42419;48.760;2.322;2022-09-09T08:14:12;100315.41;;;22.40;45.01
56518;BME280;42419;48.760;2.322;2022-09-09T08:16:41;100325.13;;;22.42;44.98
56518;BME280;42419;48.760;2.322;2022-09-09T08:19:10;100328.31;;;22.49;45.16
56518;BME280;42419;48.760;2.322;2022-09-09T08:21:37;100334.25;;;22.56;44.55
56518;BME280;42419;48.760;2.322;2022-09-09T08:24:04;100331.66;;;22.54;44.72
56518;BME280;42419;48.760;2.322;2022-09-09T08:26:37;100327.81;;;22.58;44.50
56518;BME280;42419;48.760;2.322;2022-09-09T08:29:05;100345.66;;;22.59;44.58
56518;BME280;42419;48.760;2.322;2022-09-09T08:31:34;100335.72;;;22.61;44.42
56518;BME280;42419;48.760;2.322;2022-09-09T08:34:00;100332.84;;;22.64;44.63
56518;BME280;42419;48.760;2.322;2022-09-09T08:36:29;100338.16;;;22.66;44.36
56518;BME280;42419;48.760;2.322;2022-09-09T08:38:56;100338.91;;;22.68;44.23
56518;BME280;42419;48.760;2.322;2022-09-09T08:44:16;100342.38;;;22.70;43.81
56518;BME280;42419;48.760;2.322;2022-09-09T08:46:59;100352.19;;;22.71;43.74
56518;BME280;42419;48.760;2.322;2022-09-09T08:52:36;100346.88;;;22.69;44.07
56518;BME280;42419;48.760;2.322;2022-09-09T08:57:38;100378.56;;;22.78;44.54
56518;BME280;42419;48.760;2.322;2022-09-09T09:00:04;100320.66;;;22.74;44.70
56518;BME280;42419;48.760;2.322;2022-09-09T09:02:54;100346.28;;;22.80;44.48
56518;BME280;42419;48.760;2.322;2022-09-09T09:05:46;100352.59;;;22.79;44.86
56518;BME280;42419;48.760;2.322;2022-09-09T09:10:48;100363.22;;;22.80;44.61
56518;BME280;42419;48.760;2.322;2022-09-09T09:16:07;100360.56;;;22.80;44.63
56518;BME280;42419;48.760;2.322;2022-09-09T09:18:35;100361.25;;;22.84;44.59
56518;BME280;42419;48.760;2.322;2022-09-09T09:21:16;100374.31;;;22.90;44.08
56518;BME280;42419;48.760;2.322;2022-09-09T09:24:07;100376.41;;;23.01;44.37
56518;BME280;42419;48.760;2.322;2022-09-09T09:26:37;100378.81;;;23.05;43.91
56518;BME280;42419;48.760;2.322;2022-09-09T09:29:17;100385.75;;;23.09;43.75
56518;BME280;42419;48.760;2.322;2022-09-09T09:31:50;100371.44;;;23.09;43.66
56518;BME280;42419;48.760;2.322;2022-09-09T09:34:16;100374.53;;;23.17;43.75
56518;BME280;42419;48.760;2.322;2022-09-09T09:36:59;100368.22;;;23.18;43.41
56518;BME280;42419;48.760;2.322;2022-09-09T09:39:30;100368.22;;;23.18;43.72
56518;BME280;42419;48.760;2.322;2022-09-09T09:41:56;100397.09;;;23.30;43.71
56518;BME280;42419;48.760;2.322;2022-09-09T09:44:28;100389.81;;;23.32;43.57
56518;BME280;42419;48.760;2.322;2022-09-09T09:49:31;100392.09;;;23.24;43.29
56518;BME280;42419;48.760;2.322;2022-09-09T09:52:03;100395.97;;;23.18;43.37
56518;BME280;42419;48.760;2.322;2022-09-09T09:54:37;100389.50;;;23.07;43.25
56518;BME280;42419;48.760;2.322;2022-09-09T09:57:11;100400.47;;;23.18;43.44
56518;BME280;42419;48.760;2.322;2022-09-09T09:59:37;100409.22;;;23.37;42.95
56518;BME280;42419;48.760;2.322;2022-09-09T10:02:14;100432.59;;;23.51;42.32
56518;BME280;42419;48.760;2.322;2022-09-09T10:04:40;100405.63;;;23.52;42.78
56518;BME280;42419;48.760;2.322;2022-09-09T10:07:18;100412.78;;;23.67;42.29
56518;BME280;42419;48.760;2.322;2022-09-09T10:09:44;100408.75;;;23.74;42.24
56518;BME280;42419;48.760;2.322;2022-09-09T10:15:31;100413.53;;;23.69;42.07
56518;BME280;42419;48.760;2.322;2022-09-09T10:18:16;100414.69;;;23.65;42.13
56518;BME280;42419;48.760;2.322;2022-09-09T10:20:53;100431.66;;;23.66;42.19
56518;BME280;42419;48.760;2.322;2022-09-09T10:26:28;100440.00;;;23.61;42.29
56518;BME280;42419;48.760;2.322;2022-09-09T10:34:48;100433.59;;;23.64;42.09
56518;BME280;42419;48.760;2.322;2022-09-09T10:43:46;100433.88;;;23.59;41.64
56518;BME280;42419;48.760;2.322;2022-09-09T10:48:58;100442.28;;;23.53;41.87
56518;BME280;42419;48.760;2.322;2022-09-09T10:54:10;100433.09;;;23.57;42.03
56518;BME280;42419;48.760;2.322;2022-09-09T10:56:42;100474.53;;;23.53;41.98
56518;BME280;42419;48.760;2.322;2022-09-09T10:59:19;100419.25;;;23.49;41.43
56518;BME280;42419;48.760;2.322;2022-09-09T11:01:52;100416.63;;;23.48;41.85
56518;BME280;42419;48.760;2.322;2022-09-09T11:04:25;100426.50;;;23.47;41.68
56518;BME280;42419;48.760;2.322;2022-09-09T11:06:55;100408.34;;;23.37;41.78
56518;BME280;42419;48.760;2.322;2022-09-09T11:09:28;100419.84;;;23.54;41.96
56518;BME280;42419;48.760;2.322;2022-09-09T11:11:58;100436.91;;;23.53;42.10
56518;BME280;42419;48.760;2.322;2022-09-09T11:14:37;100414.47;;;23.54;41.57
56518;BME280;42419;48.760;2.322;2022-09-09T11:17:18;100407.44;;;23.52;41.66
56518;BME280;42419;48.760;2.322;2022-09-09T11:19:44;100410.72;;;23.57;41.88
56518;BME280;42419;48.760;2.322;2022-09-09T11:22:32;100412.66;;;23.55;41.92
56518;BME280;42419;48.760;2.322;2022-09-09T11:25:04;100403.34;;;23.60;41.87
56518;BME280;42419;48.760;2.322;2022-09-09T11:38:51;100409.72;;;23.73;41.11
56518;BME280;42419;48.760;2.322;2022-09-09T11:41:19;100411.69;;;23.86;40.80
56518;BME280;42419;48.760;2.322;2022-09-09T11:43:50;100402.69;;;23.87;40.69
56518;BME280;42419;48.760;2.322;2022-09-09T11:46:20;100418.28;;;23.80;41.11
56518;BME280;42419;48.760;2.322;2022-09-09T11:48:58;100410.50;;;23.76;41.19
56518;BME280;42419;48.760;2.322;2022-09-09T11:53:50;100408.28;;;23.68;41.36
56518;BME280;42419;48.760;2.322;2022-09-09T11:56:34;100419.22;;;23.65;40.82
56518;BME280;42419;48.760;2.322;2022-09-09T11:59:26;100402.38;;;23.61;40.89
56518;BME280;42419;48.760;2.322;2022-09-09T12:02:14;100423.13;;;23.59;41.42
56518;BME280;42419;48.760;2.322;2022-09-09T12:04:57;100422.44;;;23.56;41.53
56518;BME280;42419;48.760;2.322;2022-09-09T12:07:31;100422.53;;;23.54;41.73
56518;BME280;42419;48.760;2.322;2022-09-09T12:10:23;100419.75;;;23.56;41.72
56518;BME280;42419;48.760;2.322;2022-09-09T12:12:51;100425.97;;;23.56;42.20
56518;BME280;42419;48.760;2.322;2022-09-09T12:15:28;100419.06;;;23.52;42.48
56518;BME280;42419;48.760;2.322;2022-09-09T12:17:56;100424.00;;;23.44;42.06
56518;BME280;42419;48.760;2.322;2022-09-09T12:20:35;100456.66;;;23.52;42.37
56518;BME280;42419;48.760;2.322;2022-09-09T12:23:15;100428.38;;;23.47;42.19
56518;BME280;42419;48.760;2.322;2022-09-09T12:25:56;100447.31;;;23.44;42.06
56518;BME280;42419;48.760;2.322;2022-09-09T12:28:30;100443.97;;;23.40;42.40
56518;BME280;42419;48.760;2.322;2022-09-09T12:31:10;100432.47;;;23.38;42.36
56518;BME280;42419;48.760;2.322;2022-09-09T12:33:43;100431.47;;;23.39;42.18
56518;BME280;42419;48.760;2.322;2022-09-09T12:36:23;100444.91;;;23.39;42.70
56518;BME280;42419;48.760;2.322;2022-09-09T12:38:51;100447.59;;;23.39;42.64
56518;BME280;42419;48.760;2.322;2022-09-09T12:41:21;100443.97;;;23.40;42.52
56518;BME280;42419;48.760;2.322;2022-09-09T12:43:47;100421.38;;;23.28;43.03
56518;BME280;42419;48.760;2.322;2022-09-09T12:46:21;100438.78;;;23.37;42.85
56518;BME280;42419;48.760;2.322;2022-09-09T12:48:48;100429.91;;;23.35;43.04
56518;BME280;42419;48.760;2.322;2022-09-09T12:51:24;100430.72;;;23.37;43.17
56518;BME280;42419;48.760;2.322;2022-09-09T12:53:51;100430.13;;;23.32;43.61
56518;BME280;42419;48.760;2.322;2022-09-09T12:56:29;100436.84;;;23.39;44.99
56518;BME280;42419;48.760;2.322;2022-09-09T12:58:57;100436.69;;;23.42;44.67
56518;BME280;42419;48.760;2.322;2022-09-09T13:01:31;100440.13;;;23.44;45.09
56518;BME280;42419;48.760;2.322;2022-09-09T13:03:58;100436.50;;;23.45;45.03
56518;BME280;42419;48.760;2.322;2022-09-09T13:06:26;100441.69;;;23.48;44.89
56518;BME280;42419;48.760;2.322;2022-09-09T13:08:53;100436.41;;;23.47;44.75
56518;BME280;42419;48.760;2.322;2022-09-09T13:11:35;100451.69;;;23.46;44.94
56518;BME280;42419;48.760;2.322;2022-09-09T13:14:01;100471.84;;;23.53;44.74
56518;BME280;42419;48.760;2.322;2022-09-09T13:16:28;100476.28;;;23.54;44.90
56518;BME280;42419;48.760;2.322;2022-09-09T13:19:14;100482.53;;;23.55;45.06
56518;BME280;42419;48.760;2.322;2022-09-09T13:21:41;100488.78;;;23.55;44.63
56518;BME280;42419;48.760;2.322;2022-09-09T13:24:31;100521.78;;;23.57;44.90
56518;BME280;42419;48.760;2.322;2022-09-09T13:26:58;100513.72;;;23.57;45.54
56518;BME280;42419;48.760;2.322;2022-09-09T13:29:26;100526.28;;;23.57;45.20
56518;BME280;42419;48.760;2.322;2022-09-09T13:31:53;100515.63;;;23.55;45.55
56518;BME280;42419;48.760;2.322;2022-09-09T13:34:32;100478.69;;;23.43;45.67
56518;BME280;42419;48.760;2.322;2022-09-09T13:37:02;100505.84;;;23.54;45.80
56518;BME280;42419;48.760;2.322;2022-09-09T13:39:32;100480.84;;;23.52;45.42
56518;BME280;42419;48.760;2.322;2022-09-09T13:41:58;100478.44;;;23.48;45.35
56518;BME280;42419;48.760;2.322;2022-09-09T13:44:26;100469.69;;;23.44;45.42
56518;BME280;42419;48.760;2.322;2022-09-09T13:47:06;100483.28;;;23.57;45.74
56518;BME280;42419;48.760;2.322;2022-09-09T13:49:42;100473.31;;;23.59;45.75
56518;BME280;42419;48.760;2.322;2022-09-09T13:52:14;100468.81;;;23.59;45.84
56518;BME280;42419;48.760;2.322;2022-09-09T13:54:42;100456.31;;;23.58;45.79
56518;BME280;42419;48.760;2.322;2022-09-09T13:57:19;100456.31;;;23.58;46.07
56518;BME280;42419;48.760;2.322;2022-09-09T13:59:48;100464.47;;;23.57;45.79
56518;BME280;42419;48.760;2.322;2022-09-09T14:02:14;100483.38;;;23.55;45.75
56518;BME280;42419;48.760;2.322;2022-09-09T14:04:40;100474.72;;;23.50;46.10
56518;BME280;42419;48.760;2.322;2022-09-09T14:07:10;100473.78;;;23.51;46.19
56518;BME280;42419;48.760;2.322;2022-09-09T14:09:36;100461.88;;;23.55;46.08
56518;BME280;42419;48.760;2.322;2022-09-09T14:12:01;100468.69;;;23.61;46.04
56518;BME280;42419;48.760;2.322;2022-09-09T14:14:27;100464.03;;;23.64;46.40
56518;BME280;42419;48.760;2.322;2022-09-09T14:16:52;100452.22;;;23.67;46.45
56518;BME280;42419;48.760;2.322;2022-09-09T14:19:17;100461.09;;;23.69;46.08
56518;BME280;42419;48.760;2.322;2022-09-09T14:21:43;100451.53;;;23.63;46.56
56518;BME280;42419;48.760;2.322;2022-09-09T14:24:08;100466.28;;;23.72;46.51
56518;BME280;42419;48.760;2.322;2022-09-09T14:26:33;100464.34;;;23.74;46.71
56518;BME280;42419;48.760;2.322;2022-09-09T14:28:59;100466.28;;;23.72;46.33
56518;BME280;42419;48.760;2.322;2022-09-09T14:31:26;100474.34;;;23.72;46.56
56518;BME280;42419;48.760;2.322;2022-09-09T14:33:51;100470.78;;;23.71;46.63